Time,TemperatureF,DewpointF,PressureIn,WindDirection,WindDirectionDegrees,WindSpeedMPH,WindSpeedGustMPH,Humidity,HourlyPrecipIn,Conditions,Clouds,dailyrainin,SolarRadiationWatts/m^2,SoftwareType,DateUTC
2013-11-07 00:02:00,54.0,22.0,-100.00,SW,215,3.0,6.0,29,0.00,,,0.00,0.000000,,2013-11-07 08:02:00,
2013-11-07 00:22:00,51.0,23.0,-100.00,SSW,201,3.0,6.0,33,0.00,,,0.00,0.000000,,2013-11-07 08:22:00,
2013-11-07 00:32:00,51.0,23.0,-100.00,SSW,201,3.0,6.0,33,0.00,,,0.00,0.000000,,2013-11-07 08:32:00,
2013-11-07 00:42:00,51.0,23.0,-100.00,SSW,201,3.0,6.0,33,0.00,,,0.00,0.000000,,2013-11-07 08:42:00,
2013-11-07 00:53:00,51.0,23.0,-100.00,SSW,201,3.0,6.0,33,0.00,,,0.00,0.000000,,2013-11-07 08:53:00,
2013-11-07 01:02:00,51.0,23.0,-100.00,SSW,201,3.0,6.0,33,0.00,,,0.00,0.000000,,2013-11-07 09:02:00,
2013-11-07 01:22:00,49.0,22.0,-100.00,SSW,212,4.0,7.0,34,0.00,,,0.00,0.000000,,2013-11-07 09:22:00,
2013-11-07 01:33:00,49.0,22.0,-100.00,SSW,212,4.0,7.0,34,0.00,,,0.00,0.000000,,2013-11-07 09:33:00,
2013-11-07 01:53:00,49.0,22.0,-100.00,SSW,212,4.0,7.0,34,0.00,,,0.00,0.000000,,2013-11-07 09:53:00,
2013-11-07 02:03:00,49.0,22.0,-100.00,SSW,212,4.0,7.0,34,0.00,,,0.00,0.000000,,2013-11-07 10:03:00,
2013-11-07 02:42:00,50.0,20.0,-100.00,WSW,239,3.0,7.0,30,0.00,,,0.00,0.000000,,2013-11-07 10:42:00,
2013-11-07 02:52:00,50.0,20.0,-100.00,WSW,239,3.0,7.0,30,0.00,,,0.00,0.000000,,2013-11-07 10:52:00,
2013-11-07 03:02:00,50.0,20.0,-100.00,WSW,239,3.0,7.0,30,0.00,,,0.00,0.000000,,2013-11-07 11:02:00,
2013-11-07 03:43:00,51.0,18.0,-100.00,SW,229,4.0,8.0,27,0.00,,,0.00,0.000000,,2013-11-07 11:43:00,
2013-11-07 03:52:00,51.0,18.0,-100.00,SW,229,4.0,8.0,27,0.00,,,0.00,0.000000,,2013-11-07 11:52:00,
2013-11-07 04:02:00,51.0,18.0,-100.00,SW,229,4.0,8.0,27,0.00,,,0.00,0.000000,,2013-11-07 12:02:00,
2013-11-07 04:42:00,52.0,17.0,-100.00,WSW,245,4.0,8.0,25,0.00,,,0.00,0.000000,,2013-11-07 12:42:00,
2013-11-07 04:52:00,52.0,17.0,-100.00,WSW,245,4.0,8.0,25,0.00,,,0.00,0.000000,,2013-11-07 12:52:00,
2013-11-07 05:01:00,52.0,17.0,-100.00,WSW,245,4.0,8.0,25,0.00,,,0.00,0.000000,,2013-11-07 13:01:00,
2013-11-07 05:42:00,50.0,17.0,-100.00,SSW,207,3.0,7.0,27,0.00,,,-99.99,0.000000,,2013-11-07 13:42:00,
2013-11-07 05:52:00,50.0,17.0,-100.00,SSW,207,3.0,7.0,27,0.00,,,-99.99,0.000000,,2013-11-07 13:52:00,
2013-11-07 06:02:00,50.0,17.0,-100.00,SSW,207,3.0,7.0,27,0.00,,,-99.99,0.000000,,2013-11-07 14:02:00,
2013-11-07 06:42:00,51.0,16.0,-100.00,WSW,245,4.0,9.0,25,0.00,,,0.00,0.000000,,2013-11-07 14:42:00,
2013-11-07 06:52:00,51.0,16.0,-100.00,WSW,245,4.0,9.0,25,0.00,,,0.00,0.000000,,2013-11-07 14:52:00,
2013-11-07 07:02:00,51.0,16.0,-100.00,WSW,245,4.0,9.0,25,0.00,,,0.00,0.000000,,2013-11-07 15:02:00,
2013-11-07 07:43:00,53.0,17.0,-100.00,WSW,244,4.0,8.0,24,0.00,,,0.00,4.000000,,2013-11-07 15:43:00,
2013-11-07 07:53:00,53.0,17.0,-100.00,WSW,244,4.0,8.0,24,0.00,,,0.00,4.000000,,2013-11-07 15:53:00,
2013-11-07 08:03:00,53.0,17.0,-100.00,WSW,244,4.0,8.0,24,0.00,,,0.00,4.000000,,2013-11-07 16:03:00,
2013-11-07 08:42:00,56.0,20.0,-100.00,SSW,203,2.0,9.0,24,0.00,,,0.00,62.000000,,2013-11-07 16:42:00,
2013-11-07 08:52:00,56.0,20.0,-100.00,SSW,203,2.0,9.0,24,0.00,,,0.00,62.000000,,2013-11-07 16:52:00,
2013-11-07 09:02:00,56.0,20.0,-100.00,SSW,203,2.0,9.0,24,0.00,,,0.00,62.000000,,2013-11-07 17:02:00,
2013-11-07 09:43:00,61.0,20.0,-100.00,SW,216,3.0,6.0,20,0.00,,,0.00,154.000000,,2013-11-07 17:43:00,
2013-11-07 09:52:00,61.0,20.0,-100.00,SW,216,3.0,6.0,20,0.00,,,0.00,154.000000,,2013-11-07 17:52:00,
2013-11-07 10:02:00,61.0,20.0,-100.00,SW,216,3.0,6.0,20,0.00,,,0.00,154.000000,,2013-11-07 18:02:00,
2013-11-07 10:42:00,69.0,22.0,-100.00,SSE,148,0.0,7.0,17,0.00,,,0.00,293.000000,,2013-11-07 18:42:00,
2013-11-07 10:52:00,69.0,22.0,-100.00,SSE,148,0.0,7.0,17,0.00,,,0.00,293.000000,,2013-11-07 18:52:00,
2013-11-07 11:01:00,69.0,22.0,-100.00,SSE,148,0.0,7.0,17,0.00,,,0.00,293.000000,,2013-11-07 19:01:00,
2013-11-07 11:22:00,73.0,21.0,-100.00,ENE,71,3.0,5.0,14,0.00,,,0.00,351.000000,,2013-11-07 19:22:00,
2013-11-07 11:32:00,73.0,21.0,-100.00,ENE,71,3.0,5.0,14,0.00,,,0.00,351.000000,,2013-11-07 19:32:00,
2013-11-07 11:42:00,73.0,21.0,-100.00,ENE,71,3.0,5.0,14,0.00,,,0.00,351.000000,,2013-11-07 19:42:00,
2013-11-07 11:52:00,73.0,21.0,-100.00,ENE,71,3.0,5.0,14,0.00,,,0.00,351.000000,,2013-11-07 19:52:00,
2013-11-07 12:01:00,73.0,21.0,-100.00,ENE,71,3.0,5.0,14,0.00,,,0.00,351.000000,,2013-11-07 20:01:00,
2013-11-07 12:52:00,75.0,17.0,-100.00,East,98,3.0,6.0,11,0.00,,,0.00,358.000000,,2013-11-07 20:52:00,
2013-11-07 13:02:00,75.0,17.0,-100.00,East,98,3.0,6.0,11,0.00,,,0.00,358.000000,,2013-11-07 21:02:00,
2013-11-07 13:22:00,78.0,17.0,-100.00,WSW,243,2.0,7.0,10,0.00,,,0.00,350.000000,,2013-11-07 21:22:00,
2013-11-07 13:34:00,78.0,17.0,-100.00,WSW,243,2.0,7.0,10,0.00,,,0.00,350.000000,,2013-11-07 21:34:00,
2013-11-07 13:43:00,78.0,17.0,-100.00,WSW,243,2.0,7.0,10,0.00,,,0.00,350.000000,,2013-11-07 21:43:00,
2013-11-07 13:53:00,78.0,17.0,-100.00,WSW,243,2.0,7.0,10,0.00,,,0.00,350.000000,,2013-11-07 21:53:00,
2013-11-07 14:03:00,78.0,17.0,-100.00,WSW,243,2.0,7.0,10,0.00,,,0.00,350.000000,,2013-11-07 22:03:00,
2013-11-07 14:24:00,79.0,20.0,-100.00,ESE,107,6.0,11.0,11,0.00,,,0.00,443.000000,,2013-11-07 22:24:00,
2013-11-07 14:33:00,79.0,20.0,-100.00,ESE,107,6.0,11.0,11,0.00,,,0.00,443.000000,,2013-11-07 22:33:00,
2013-11-07 14:43:00,79.0,20.0,-100.00,ESE,107,6.0,11.0,11,0.00,,,0.00,443.000000,,2013-11-07 22:43:00,
2013-11-07 14:53:00,79.0,20.0,-100.00,ESE,107,6.0,11.0,11,0.00,,,0.00,443.000000,,2013-11-07 22:53:00,
2013-11-07 15:02:00,79.0,20.0,-100.00,ESE,107,6.0,11.0,11,0.00,,,0.00,443.000000,,2013-11-07 23:02:00,
2013-11-07 16:22:00,74.0,20.0,-100.00,ESE,104,3.0,10.0,13,-99.99,,,0.00,151.000000,,2013-11-08 00:22:00,
2013-11-07 16:32:00,74.0,20.0,-100.00,ESE,104,3.0,10.0,13,-99.99,,,0.00,151.000000,,2013-11-08 00:32:00,
2013-11-07 16:42:00,74.0,20.0,-100.00,ESE,104,3.0,10.0,13,-99.99,,,0.00,151.000000,,2013-11-08 00:42:00,
2013-11-07 17:22:00,65.0,23.0,-100.00,SW,235,1.0,6.0,20,0.00,,,0.00,15.000000,,2013-11-08 01:22:00,
2013-11-07 17:32:00,65.0,23.0,-100.00,SW,235,1.0,6.0,20,0.00,,,0.00,15.000000,,2013-11-08 01:32:00,
2013-11-07 17:42:00,65.0,23.0,-100.00,SW,235,1.0,6.0,20,0.00,,,0.00,15.000000,,2013-11-08 01:42:00,
2013-11-07 17:52:00,65.0,23.0,-100.00,SW,235,1.0,6.0,20,0.00,,,0.00,15.000000,,2013-11-08 01:52:00,
2013-11-07 18:02:00,65.0,23.0,-100.00,SW,235,1.0,6.0,20,0.00,,,0.00,15.000000,,2013-11-08 02:02:00,
2013-11-07 18:22:00,59.0,23.0,-100.00,SW,228,1.0,4.0,25,0.00,,,0.00,1.000000,,2013-11-08 02:22:00,
2013-11-07 18:32:00,59.0,23.0,-100.00,SW,228,1.0,4.0,25,0.00,,,0.00,1.000000,,2013-11-08 02:32:00,
2013-11-07 18:42:00,59.0,23.0,-100.00,SW,228,1.0,4.0,25,0.00,,,0.00,1.000000,,2013-11-08 02:42:00,
2013-11-07 18:52:00,59.0,23.0,-100.00,SW,228,1.0,4.0,25,0.00,,,0.00,1.000000,,2013-11-08 02:52:00,
2013-11-07 19:02:00,59.0,23.0,-100.00,SW,228,1.0,4.0,25,0.00,,,0.00,1.000000,,2013-11-08 03:02:00,
2013-11-07 20:44:00,54.0,22.0,-100.00,SW,214,3.0,7.0,29,0.00,,,0.00,0.000000,,2013-11-08 04:44:00,
2013-11-07 20:54:00,54.0,22.0,-100.00,SW,214,3.0,7.0,29,0.00,,,0.00,0.000000,,2013-11-08 04:54:00,
2013-11-07 21:03:00,54.0,22.0,-100.00,SW,214,3.0,7.0,29,0.00,,,0.00,0.000000,,2013-11-08 05:03:00,
2013-11-07 21:43:00,51.0,22.0,-100.00,SSW,212,2.0,6.0,32,0.00,,,0.00,0.000000,,2013-11-08 05:43:00,
2013-11-07 21:54:00,51.0,22.0,-100.00,SSW,212,2.0,6.0,32,0.00,,,0.00,0.000000,,2013-11-08 05:54:00,
2013-11-07 22:03:00,51.0,22.0,-100.00,SSW,212,2.0,6.0,32,0.00,,,0.00,0.000000,,2013-11-08 06:03:00,
2013-11-07 22:42:00,52.0,21.0,-100.00,SW,220,5.0,9.0,29,0.00,,,0.00,0.000000,,2013-11-08 06:42:00,
2013-11-07 22:52:00,52.0,21.0,-100.00,SW,220,5.0,9.0,29,0.00,,,0.00,0.000000,,2013-11-08 06:52:00,
2013-11-07 23:01:00,52.0,21.0,-100.00,SW,220,5.0,9.0,29,0.00,,,0.00,0.000000,,2013-11-08 07:01:00,
2013-11-07 23:42:00,50.0,21.0,-100.00,SSW,209,3.0,7.0,32,0.00,,,0.00,0.000000,,2013-11-08 07:42:00,
2013-11-07 23:52:00,50.0,21.0,-100.00,SSW,209,3.0,7.0,32,0.00,,,0.00,0.000000,,2013-11-08 07:52:00,